createdAt,value
2018-07-22T00:00:12.284Z,62.11
2018-07-22T00:02:41.572Z,62.27
2018-07-22T00:09:28.322Z,62.83
2018-07-22T00:11:57.503Z,63.03
2018-07-22T00:14:26.400Z,63.14
2018-07-22T00:16:55.324Z,63.30
2018-07-22T00:19:24.278Z,62.62
2018-07-22T00:21:53.253Z,62.85
2018-07-22T00:24:22.164Z,63.72
2018-07-22T00:26:51.082Z,63.60
2018-07-22T00:29:20.032Z,63.94
2018-07-22T00:32:43.977Z,63.74
2018-07-22T00:35:13.138Z,63.20
2018-07-22T00:37:42.366Z,63.89
2018-07-22T00:40:12.218Z,63.99
2018-07-22T00:42:41.130Z,63.89
2018-07-22T00:45:12.015Z,63.90
2018-07-22T00:47:41.386Z,63.40
2018-07-22T00:50:10.380Z,64.24
2018-07-22T00:52:39.683Z,64.73
2018-07-22T00:55:08.647Z,64.71
2018-07-22T00:57:37.663Z,65.07
2018-07-22T01:00:06.979Z,65.42
2018-07-22T01:02:35.821Z,65.57
2018-07-22T01:05:05.015Z,65.90
2018-07-22T01:07:33.815Z,65.32
2018-07-22T01:10:02.735Z,64.65
2018-07-22T01:12:31.584Z,65.48
2018-07-22T01:15:09.179Z,65.95
2018-07-22T01:17:38.069Z,65.75
2018-07-22T01:20:07.624Z,66.22
2018-07-22T01:22:36.655Z,66.32
2018-07-22T01:25:05.776Z,66.41
2018-07-22T01:27:34.704Z,66.57
2018-07-22T01:30:03.750Z,67.02
2018-07-22T01:32:32.730Z,67.00
2018-07-22T01:35:01.645Z,66.69
2018-07-22T01:37:30.724Z,67.00
2018-07-22T01:39:59.624Z,67.18
2018-07-22T01:42:28.524Z,67.59
2018-07-22T01:44:57.453Z,67.80
2018-07-22T01:47:26.425Z,67.95
2018-07-22T01:49:55.381Z,68.01
2018-07-22T01:52:24.260Z,67.67
2018-07-22T01:54:53.143Z,68.16
2018-07-22T01:57:22.020Z,68.25
2018-07-22T01:59:50.934Z,68.20
2018-07-22T02:02:19.842Z,68.32
2018-07-22T02:04:48.705Z,68.18
2018-07-22T02:07:17.592Z,68.34
2018-07-22T02:09:46.455Z,68.53
2018-07-22T02:12:15.437Z,68.06
2018-07-22T02:14:44.264Z,68.74
2018-07-22T02:17:13.304Z,68.22
2018-07-22T02:19:42.204Z,67.31
2018-07-22T02:22:11.119Z,67.88
2018-07-22T02:24:40.017Z,67.93
2018-07-22T02:27:09.007Z,68.25
2018-07-22T02:29:37.821Z,68.66
2018-07-22T02:32:07.013Z,69.05
2018-07-22T02:34:35.812Z,68.91
2018-07-22T02:37:04.693Z,68.87
2018-07-22T02:39:33.599Z,68.94
2018-07-22T02:42:02.532Z,69.10
2018-07-22T02:44:31.573Z,69.61
2018-07-22T02:47:00.566Z,69.55
2018-07-22T02:49:29.398Z,70.01
2018-07-22T02:51:58.261Z,70.08
2018-07-22T02:54:27.159Z,70.04
2018-07-22T02:56:56.052Z,69.97
2018-07-22T02:59:24.938Z,70.25
2018-07-22T03:01:53.823Z,70.13
2018-07-22T03:04:22.739Z,69.91
2018-07-22T03:06:51.612Z,69.94
2018-07-22T03:09:20.503Z,70.13
2018-07-22T03:11:49.453Z,70.11
2018-07-22T03:14:18.315Z,68.81
2018-07-22T03:16:47.235Z,68.27
2018-07-22T03:19:16.119Z,69.17
2018-07-22T03:21:45.067Z,69.35
2018-07-22T03:24:13.937Z,69.28
2018-07-22T03:26:42.831Z,69.51
2018-07-22T03:29:18.111Z,69.68
2018-07-22T03:31:46.999Z,69.67
2018-07-22T03:34:15.931Z,69.65
2018-07-22T03:36:44.835Z,69.50
2018-07-22T03:39:13.783Z,69.63
2018-07-22T03:41:42.716Z,68.44
2018-07-22T03:44:11.638Z,69.42
2018-07-22T03:46:40.430Z,69.58
2018-07-22T03:49:09.368Z,69.64
2018-07-22T03:55:22.794Z,69.17
2018-07-22T03:57:51.680Z,68.79
2018-07-22T04:00:20.540Z,69.75
2018-07-22T04:02:49.408Z,69.87
2018-07-22T04:05:18.312Z,69.81
2018-07-22T04:07:47.155Z,70.11
2018-07-22T04:10:16.029Z,69.00
2018-07-22T04:12:45.001Z,69.49
2018-07-22T04:15:15.079Z,69.73
2018-07-22T04:17:43.953Z,70.10
2018-07-22T04:20:12.830Z,69.75
2018-07-22T04:22:41.778Z,69.38
2018-07-22T04:25:10.717Z,69.25
2018-07-22T04:27:39.594Z,69.83
2018-07-22T04:30:08.515Z,69.82
2018-07-22T04:32:37.467Z,69.68
2018-07-22T04:35:06.307Z,69.81
2018-07-22T04:37:38.502Z,70.46
2018-07-22T04:40:07.346Z,70.59
2018-07-22T04:42:36.202Z,70.51
2018-07-22T04:45:06.053Z,70.85
2018-07-22T04:47:35.141Z,70.97
2018-07-22T04:50:04.037Z,70.84
2018-07-22T04:52:33.016Z,71.48
2018-07-22T04:55:01.898Z,71.36
2018-07-22T04:57:30.808Z,71.73
2018-07-22T04:59:59.719Z,71.75
2018-07-22T05:02:28.672Z,71.36
2018-07-22T05:04:57.490Z,71.08
2018-07-22T05:07:26.428Z,71.11
2018-07-22T05:09:55.243Z,70.95
2018-07-22T05:12:24.110Z,70.86
2018-07-22T05:14:52.967Z,70.84
2018-07-22T05:17:21.843Z,70.80
2018-07-22T05:23:33.237Z,70.52
2018-07-22T05:26:02.117Z,70.60
2018-07-22T05:28:30.977Z,70.52
2018-07-22T05:30:59.835Z,70.40
2018-07-22T05:33:28.732Z,70.50
2018-07-22T05:35:57.672Z,70.14
2018-07-22T05:38:26.547Z,69.99
2018-07-22T05:40:55.445Z,69.91
2018-07-22T05:43:24.353Z,70.29
2018-07-22T05:45:53.233Z,69.22
2018-07-22T05:48:22.129Z,69.64
2018-07-22T05:50:51.001Z,69.47
2018-07-22T05:53:19.896Z,69.38
2018-07-22T05:55:48.802Z,69.19
2018-07-22T05:58:17.678Z,68.98
2018-07-22T06:00:46.516Z,68.38
2018-07-22T06:03:15.411Z,67.86
2018-07-22T06:05:44.267Z,67.01
2018-07-22T06:08:13.308Z,66.39
2018-07-22T06:10:42.122Z,65.85
2018-07-22T06:13:10.992Z,65.04
2018-07-22T06:15:39.924Z,64.48
2018-07-22T06:18:08.718Z,63.43
2018-07-22T06:20:37.603Z,61.94
2018-07-22T06:23:06.524Z,60.64
2018-07-22T06:25:35.349Z,56.52
2018-07-22T06:28:04.368Z,51.42
2018-07-22T06:30:33.257Z,46.95
2018-07-22T06:33:02.172Z,43.31
2018-07-22T06:35:31.069Z,41.04
2018-07-22T06:37:59.969Z,38.73
2018-07-22T06:40:28.815Z,36.54
2018-07-22T06:42:57.666Z,35.74
2018-07-22T06:45:26.553Z,34.93
2018-07-22T06:47:55.463Z,33.68
2018-07-22T06:50:24.531Z,32.81
2018-07-22T06:52:53.490Z,32.61
2018-07-22T06:55:22.341Z,32.07
2018-07-22T06:57:51.210Z,31.09
2018-07-22T07:00:20.090Z,31.80
2018-07-22T07:02:48.996Z,30.31
2018-07-22T07:05:17.896Z,29.50
2018-07-22T07:07:46.748Z,28.77
2018-07-22T07:10:15.696Z,27.85
2018-07-22T07:12:47.464Z,27.51
2018-07-22T07:15:16.316Z,27.66
2018-07-22T07:17:45.208Z,26.85
2018-07-22T07:20:14.087Z,26.71
2018-07-22T07:22:42.980Z,26.17
2018-07-22T07:25:12.058Z,25.26
2018-07-22T07:27:40.942Z,23.95
2018-07-22T07:30:09.845Z,24.35
2018-07-22T07:32:38.745Z,24.98
2018-07-22T07:35:07.628Z,24.84
2018-07-22T07:37:36.471Z,24.87
2018-07-22T07:40:05.428Z,23.68
2018-07-22T07:42:34.296Z,22.32
2018-07-22T07:45:03.172Z,22.09
2018-07-22T07:47:31.986Z,22.17
2018-07-22T07:50:00.869Z,21.87
2018-07-22T07:52:29.748Z,21.71
2018-07-22T07:54:58.764Z,21.54
2018-07-22T07:57:27.627Z,20.52
2018-07-22T07:59:56.447Z,20.41
2018-07-22T08:02:26.208Z,19.94
2018-07-22T08:04:55.489Z,19.69
2018-07-22T08:07:24.371Z,20.14
2018-07-22T08:09:53.246Z,20.40
2018-07-22T08:12:22.171Z,20.18
2018-07-22T08:14:51.043Z,19.28
2018-07-22T08:17:19.924Z,19.75
2018-07-22T08:19:48.796Z,20.70
2018-07-22T08:22:17.763Z,20.96
2018-07-22T08:24:46.564Z,22.64
2018-07-22T08:27:15.433Z,23.52
2018-07-22T08:29:44.326Z,24.62
2018-07-22T08:32:13.123Z,23.99
2018-07-22T08:34:41.999Z,24.93
2018-07-22T08:37:46.753Z,25.83
2018-07-22T08:40:15.664Z,26.12
2018-07-22T08:42:44.516Z,25.99
2018-07-22T08:45:13.418Z,25.12
2018-07-22T08:47:42.290Z,23.27
2018-07-22T08:50:11.115Z,22.40
2018-07-22T08:52:39.989Z,21.73
2018-07-22T08:55:08.854Z,20.35
2018-07-22T08:57:37.903Z,19.55
2018-07-22T09:00:07.958Z,20.34
2018-07-22T09:02:36.809Z,19.42
2018-07-22T09:05:06.345Z,19.36
2018-07-22T09:07:35.176Z,18.76
2018-07-22T09:10:04.087Z,17.94
2018-07-22T09:12:32.972Z,17.88
2018-07-22T09:15:01.983Z,18.18
2018-07-22T09:17:30.842Z,17.79
2018-07-22T09:19:59.727Z,17.99
2018-07-22T09:22:35.815Z,17.68
2018-07-22T09:25:04.696Z,17.77
2018-07-22T09:27:33.568Z,17.17
2018-07-22T09:30:02.457Z,17.64
2018-07-22T09:32:31.355Z,17.49
2018-07-22T09:35:00.143Z,17.39
2018-07-22T09:37:29.059Z,18.47
2018-07-22T09:40:02.670Z,18.95
2018-07-22T09:42:33.037Z,21.49
2018-07-22T09:45:06.298Z,23.34
2018-07-22T09:47:35.536Z,24.23
2018-07-22T09:50:07.658Z,25.28
2018-07-22T09:52:36.520Z,26.28
2018-07-22T09:55:10.521Z,27.63
2018-07-22T09:57:45.859Z,29.08
2018-07-22T10:00:31.074Z,29.44
2018-07-22T10:03:01.729Z,30.02
2018-07-22T10:05:31.337Z,30.49
2018-07-22T10:08:06.070Z,31.29
2018-07-22T10:10:37.634Z,31.98
2018-07-22T10:13:12.071Z,32.36
2018-07-22T10:15:43.159Z,32.47
2018-07-22T10:18:15.179Z,32.75
2018-07-22T10:20:44.377Z,32.17
2018-07-22T10:24:11.105Z,30.72
2018-07-22T10:26:45.202Z,27.64
2018-07-22T10:29:14.242Z,26.17
2018-07-22T10:31:46.712Z,25.93
2018-07-22T10:34:24.411Z,24.75
2018-07-22T10:36:56.364Z,24.62
2018-07-22T10:39:30.786Z,24.18
2018-07-22T10:41:55.056Z,23.02
2018-07-22T10:44:30.527Z,23.64
2018-07-22T10:47:03.972Z,22.66
2018-07-22T10:49:39.849Z,22.81
2018-07-22T10:52:10.932Z,23.50
2018-07-22T10:54:38.860Z,24.65
2018-07-22T10:57:11.667Z,24.92
2018-07-22T10:59:45.980Z,24.73
2018-07-22T11:02:15.147Z,24.03
2018-07-22T11:04:47.907Z,25.35
2018-07-22T11:07:19.826Z,26.44
2018-07-22T11:09:49.389Z,26.14
2018-07-22T11:12:18.825Z,26.15
2018-07-22T11:14:55.687Z,26.65
2018-07-22T11:17:24.443Z,27.26
2018-07-22T11:19:56.407Z,26.81
2018-07-22T11:22:37.526Z,26.93
2018-07-22T11:25:07.070Z,26.97
2018-07-22T11:27:36.479Z,27.63
2018-07-22T11:30:05.688Z,28.40
2018-07-22T11:32:40.077Z,29.08
2018-07-22T11:35:11.674Z,29.11
2018-07-22T11:37:41.554Z,29.61
2018-07-22T11:40:19.154Z,29.76
2018-07-22T11:42:48.500Z,29.18
2018-07-22T11:45:30.227Z,30.31
2018-07-22T11:48:00.109Z,30.44
2018-07-22T11:50:29.262Z,29.46
2018-07-22T11:53:00.663Z,27.50
2018-07-22T11:55:30.180Z,27.40
2018-07-22T11:58:02.753Z,27.23
2018-07-22T12:00:31.722Z,28.03
2018-07-22T12:03:01.157Z,27.58
2018-07-22T12:05:35.683Z,26.36
2018-07-22T12:08:10.395Z,25.46
2018-07-22T12:10:48.961Z,25.75
2018-07-22T12:13:18.065Z,26.06
2018-07-22T12:15:49.998Z,27.05
2018-07-22T12:18:19.327Z,27.70
2018-07-22T12:20:48.563Z,27.91
2018-07-22T12:23:18.070Z,27.61
2018-07-22T12:25:54.888Z,26.73
2018-07-22T12:28:28.667Z,26.46
2018-07-22T12:30:56.167Z,26.60
2018-07-22T12:33:27.602Z,26.69
2018-07-22T12:35:59.543Z,26.44
2018-07-22T12:38:28.731Z,26.16
2018-07-22T12:41:05.774Z,26.26
2018-07-22T12:43:37.439Z,26.67
2018-07-22T12:46:06.678Z,27.64
2018-07-22T12:48:36.362Z,28.21
2018-07-22T12:51:09.314Z,27.79
2018-07-22T12:53:38.685Z,28.01
2018-07-22T12:56:07.954Z,28.54
2018-07-22T12:58:37.128Z,28.93
2018-07-22T13:01:06.473Z,28.08
2018-07-22T13:03:35.549Z,27.29
2018-07-22T13:06:05.140Z,26.94
2018-07-22T13:08:37.824Z,27.00
2018-07-22T13:11:05.191Z,27.07
2018-07-22T13:13:34.219Z,26.94
2018-07-22T13:16:07.275Z,26.52
2018-07-22T13:18:36.350Z,26.00
2018-07-22T13:21:05.543Z,24.67
2018-07-22T13:23:38.725Z,25.00
2018-07-22T13:26:08.160Z,25.43
2018-07-22T13:28:37.532Z,25.79
2018-07-22T13:31:08.563Z,25.99
2018-07-22T13:33:41.347Z,26.14
2018-07-22T13:36:22.669Z,25.97
2018-07-22T13:38:56.587Z,26.21
2018-07-22T13:41:25.851Z,26.31
2018-07-22T13:43:55.218Z,26.42
2018-07-22T13:46:26.417Z,26.55
2018-07-22T13:48:55.547Z,27.08
2018-07-22T13:51:29.784Z,27.43
2018-07-22T13:53:59.062Z,27.13
2018-07-22T13:56:32.701Z,27.21
2018-07-22T13:59:02.137Z,27.28
2018-07-22T14:01:37.786Z,26.34
2018-07-22T14:04:07.299Z,25.96
2018-07-22T14:06:42.989Z,26.19
2018-07-22T14:09:15.928Z,26.11
2018-07-22T14:11:45.238Z,26.15
2018-07-22T14:14:17.446Z,26.29
2018-07-22T14:16:49.115Z,26.29
2018-07-22T14:19:19.780Z,26.53
2018-07-22T14:21:47.282Z,26.25
2018-07-22T14:24:18.938Z,25.69
2018-07-22T14:26:48.555Z,25.48
2018-07-22T14:29:20.390Z,25.56
2018-07-22T14:31:49.923Z,25.52
2018-07-22T14:34:19.481Z,25.41
2018-07-22T14:36:55.917Z,25.56
2018-07-22T14:39:25.072Z,25.51
2018-07-22T14:41:53.999Z,25.71
2018-07-22T14:44:22.838Z,26.80
2018-07-22T14:46:58.048Z,27.19
2018-07-22T14:49:26.842Z,27.34
2018-07-22T14:51:55.810Z,27.40
2018-07-22T14:54:24.648Z,27.46
2018-07-22T14:56:53.488Z,27.25
2018-07-22T14:59:22.394Z,27.21
2018-07-22T15:01:51.261Z,26.62
2018-07-22T15:04:20.188Z,26.41
2018-07-22T15:06:49.023Z,26.61
2018-07-22T15:09:19.605Z,27.00
2018-07-22T15:11:48.528Z,28.09
2018-07-22T15:14:17.388Z,28.12
2018-07-22T15:16:46.241Z,28.24
2018-07-22T15:19:15.123Z,28.39
2018-07-22T15:21:43.981Z,28.22
2018-07-22T15:24:12.847Z,28.19
2018-07-22T15:26:41.711Z,27.98
2018-07-22T15:29:10.570Z,28.34
2018-07-22T15:35:33.273Z,28.84
2018-07-22T15:38:02.110Z,29.33
2018-07-22T15:40:30.998Z,29.59
2018-07-22T15:42:59.899Z,29.80
2018-07-22T15:45:28.746Z,30.14
2018-07-22T15:47:57.611Z,30.09
2018-07-22T15:50:26.427Z,30.10
2018-07-22T15:52:55.285Z,29.05
2018-07-22T15:55:24.267Z,28.57
2018-07-22T15:58:28.866Z,28.05
2018-07-22T16:00:57.709Z,26.86
2018-07-22T16:03:26.681Z,26.27
2018-07-22T16:05:55.527Z,25.04
2018-07-22T16:08:24.470Z,24.58
2018-07-22T16:10:53.260Z,24.80
2018-07-22T16:13:22.165Z,24.10
2018-07-22T16:15:51.044Z,23.78
2018-07-22T16:18:20.112Z,23.18
2018-07-22T16:20:52.166Z,22.39
2018-07-22T16:23:21.039Z,22.48
2018-07-22T16:25:49.883Z,21.81
2018-07-22T16:28:18.744Z,21.65
2018-07-22T16:30:47.716Z,21.24
2018-07-22T16:33:16.572Z,21.37
2018-07-22T16:35:45.957Z,20.80
2018-07-22T16:38:14.825Z,19.97
2018-07-22T16:40:43.677Z,19.82
2018-07-22T16:43:15.688Z,20.28
2018-07-22T16:45:44.607Z,20.67
2018-07-22T16:48:13.445Z,21.22
2018-07-22T16:50:42.362Z,21.37
2018-07-22T16:53:11.199Z,21.39
2018-07-22T16:55:40.071Z,21.80
2018-07-22T16:58:10.633Z,21.56
2018-07-22T17:00:37.890Z,21.36
2018-07-22T17:03:06.760Z,21.71
2018-07-22T17:05:35.711Z,21.76
2018-07-22T17:08:04.534Z,22.20
2018-07-22T17:10:34.084Z,22.01
2018-07-22T17:13:02.952Z,22.53
2018-07-22T17:15:31.833Z,22.52
2018-07-22T17:18:00.712Z,22.87
2018-07-22T17:20:29.574Z,23.05
2018-07-22T17:22:58.472Z,23.34
2018-07-22T17:25:27.282Z,23.46
2018-07-22T17:27:56.098Z,24.58
2018-07-22T17:30:24.952Z,26.10
2018-07-22T17:32:53.921Z,26.55
2018-07-22T17:35:22.700Z,27.25
2018-07-22T17:37:51.569Z,27.47
2018-07-22T17:40:20.401Z,27.48
2018-07-22T17:42:49.339Z,28.01
2018-07-22T17:45:20.662Z,28.41
2018-07-22T17:47:49.529Z,28.68
2018-07-22T17:50:24.328Z,28.72
2018-07-22T17:52:53.231Z,28.66
2018-07-22T17:55:22.091Z,29.04
2018-07-22T17:57:50.955Z,29.56
2018-07-22T18:00:19.826Z,29.93
2018-07-22T18:03:09.476Z,30.52
2018-07-22T18:05:38.565Z,31.76
2018-07-22T18:08:07.444Z,32.21
2018-07-22T18:10:39.277Z,32.51
2018-07-22T18:13:08.085Z,33.18
2018-07-22T18:15:36.988Z,33.65
2018-07-22T18:18:06.002Z,34.40
2018-07-22T18:20:34.914Z,34.80
2018-07-22T18:23:03.935Z,35.49
2018-07-22T18:25:32.748Z,35.61
2018-07-22T18:28:01.790Z,36.62
2018-07-22T18:30:31.001Z,37.18
2018-07-22T18:33:01.209Z,37.33
2018-07-22T18:35:30.075Z,37.62
2018-07-22T18:37:58.983Z,38.25
2018-07-22T18:40:27.847Z,38.59
2018-07-22T18:42:57.183Z,38.96
2018-07-22T18:45:26.124Z,39.27
2018-07-22T18:47:55.251Z,39.52
2018-07-22T18:50:24.369Z,39.92
2018-07-22T18:52:53.268Z,40.19
2018-07-22T18:58:57.605Z,40.87
2018-07-22T19:01:26.456Z,41.39
2018-07-22T19:03:55.475Z,41.75
2018-07-22T19:06:24.392Z,41.89
2018-07-22T19:08:53.294Z,42.16
2018-07-22T19:11:22.299Z,42.23
2018-07-22T19:13:51.287Z,42.48
2018-07-22T19:16:20.211Z,42.73
2018-07-22T19:18:49.185Z,43.14
2018-07-22T19:21:18.069Z,43.31
2018-07-22T19:23:46.945Z,43.19
2018-07-22T19:26:15.884Z,43.66
2018-07-22T19:28:44.736Z,43.66
2018-07-22T19:31:13.827Z,43.73
2018-07-22T19:33:42.751Z,43.99
2018-07-22T19:36:11.600Z,44.09
2018-07-22T19:38:40.525Z,44.04
2018-07-22T19:41:10.585Z,44.35
2018-07-22T19:43:39.485Z,44.44
2018-07-22T19:46:08.420Z,44.50
2018-07-22T19:48:37.295Z,44.67
2018-07-22T19:51:06.225Z,44.73
2018-07-22T19:53:35.044Z,45.05
2018-07-22T19:56:04.077Z,45.32
2018-07-22T19:58:32.931Z,45.22
2018-07-22T20:01:01.791Z,45.53
2018-07-22T20:03:30.751Z,45.60
2018-07-22T20:05:59.639Z,45.72
2018-07-22T20:08:28.620Z,45.94
2018-07-22T20:10:57.520Z,46.40
2018-07-22T20:13:26.671Z,46.55
2018-07-22T20:15:55.573Z,46.69
2018-07-22T20:18:24.492Z,46.70
2018-07-22T20:20:53.373Z,46.96
2018-07-22T20:23:22.267Z,47.28
2018-07-22T20:25:51.219Z,47.23
2018-07-22T20:28:20.193Z,47.08
2018-07-22T20:30:49.194Z,47.07
2018-07-22T20:33:18.195Z,46.94
2018-07-22T20:35:47.106Z,47.11
2018-07-22T20:38:16.047Z,47.14
2018-07-22T20:40:44.940Z,47.26
2018-07-22T20:43:13.840Z,47.24
2018-07-22T20:45:42.815Z,47.48
2018-07-22T20:48:12.994Z,47.62
2018-07-22T20:50:41.860Z,48.11
2018-07-22T20:53:10.740Z,48.22
2018-07-22T20:55:39.654Z,48.77
2018-07-22T20:58:08.514Z,48.93
2018-07-22T21:00:37.696Z,49.42
2018-07-22T21:03:06.587Z,49.51
2018-07-22T21:05:35.554Z,49.80
2018-07-22T21:08:04.535Z,50.02
2018-07-22T21:10:34.185Z,49.41
2018-07-22T21:13:31.318Z,50.23
2018-07-22T21:16:00.265Z,50.18
2018-07-22T21:18:29.135Z,50.41
2018-07-22T21:20:58.037Z,50.95
2018-07-22T21:23:26.926Z,51.27
2018-07-22T21:25:55.840Z,51.45
2018-07-22T21:28:24.707Z,51.68
2018-07-22T21:30:53.626Z,51.54
2018-07-22T21:33:22.600Z,51.90
2018-07-22T21:35:51.535Z,52.12
2018-07-22T21:38:20.422Z,52.12
2018-07-22T21:40:49.323Z,52.42
2018-07-22T21:43:18.196Z,52.45
2018-07-22T21:45:47.094Z,52.87
2018-07-22T21:48:16.100Z,53.04
2018-07-22T21:50:44.910Z,53.20
2018-07-22T21:54:08.377Z,53.35
2018-07-22T21:56:37.262Z,53.68
2018-07-22T21:59:06.477Z,54.40
2018-07-22T22:01:35.348Z,54.77
2018-07-22T22:04:04.242Z,55.32
2018-07-22T22:06:33.276Z,55.56
2018-07-22T22:09:02.064Z,55.34
2018-07-22T22:11:30.962Z,55.06
2018-07-22T22:13:59.798Z,55.16
2018-07-22T22:16:30.074Z,55.63
2018-07-22T22:18:58.988Z,55.84
2018-07-22T22:21:27.868Z,56.14
2018-07-22T22:23:56.714Z,56.21
2018-07-22T22:26:25.610Z,56.32
2018-07-22T22:28:54.471Z,56.61
2018-07-22T22:31:23.379Z,56.65
2018-07-22T22:33:52.230Z,56.88
2018-07-22T22:36:21.188Z,56.83
2018-07-22T22:38:53.204Z,57.14
2018-07-22T22:41:22.146Z,57.28
2018-07-22T22:43:50.992Z,57.52
2018-07-22T22:46:19.906Z,57.82
2018-07-22T22:48:48.765Z,57.58
2018-07-22T22:51:17.719Z,58.03
2018-07-22T22:53:46.548Z,58.10
2018-07-22T22:56:15.472Z,58.17
2018-07-22T22:59:19.575Z,58.08
2018-07-22T23:01:48.657Z,58.50
2018-07-22T23:04:17.737Z,58.63
2018-07-22T23:06:46.816Z,58.32
2018-07-22T23:09:16.450Z,58.47
2018-07-22T23:11:45.389Z,58.83
2018-07-22T23:14:14.249Z,58.80
2018-07-22T23:16:43.172Z,58.98
2018-07-22T23:19:12.071Z,59.15
2018-07-22T23:21:40.993Z,59.32
2018-07-22T23:24:09.916Z,59.39
2018-07-22T23:26:38.716Z,59.46
2018-07-22T23:29:07.576Z,59.74
2018-07-22T23:31:36.422Z,59.34
2018-07-22T23:34:05.284Z,58.29
2018-07-22T23:36:34.166Z,59.32
2018-07-22T23:39:03.063Z,59.33
2018-07-22T23:41:35.044Z,59.28
2018-07-22T23:44:03.906Z,59.69
2018-07-22T23:46:32.798Z,59.52
2018-07-22T23:49:01.723Z,59.05
2018-07-22T23:51:30.579Z,59.54
2018-07-22T23:53:59.491Z,59.37
2018-07-22T23:56:28.434Z,59.65
2018-07-22T23:58:57.311Z,59.65
